createdAt,value
2023-05-25T00:23:10.832Z,11.77
2023-05-25T00:28:37.234Z,10.13
2023-05-25T00:59:41.710Z,11.80
2023-05-25T01:04:52.478Z,15.37
2023-05-25T01:10:14.954Z,9.07
2023-05-25T01:15:16.783Z,10.17
2023-05-25T01:20:19.824Z,9.13
2023-05-25T01:25:34.492Z,9.00
2023-05-25T01:30:37.449Z,13.60
2023-05-25T01:35:40.355Z,9.67
2023-05-25T01:40:42.147Z,13.20
2023-05-25T01:45:46.691Z,9.73
2023-05-25T01:51:17.275Z,11.73
2023-05-25T01:56:20.116Z,11.07
2023-05-25T02:01:23.111Z,11.60
2023-05-25T02:06:25.156Z,13.33
2023-05-25T02:11:39.470Z,11.33
2023-05-25T02:16:41.324Z,8.17
2023-05-25T02:21:43.199Z,11.93
2023-05-25T02:26:47.930Z,15.73
2023-05-25T02:31:49.925Z,12.33
2023-05-25T02:36:51.914Z,13.53
2023-05-25T02:41:55.971Z,11.87
2023-05-25T02:47:06.677Z,10.00
2023-05-25T02:52:12.284Z,11.60
2023-05-25T02:57:14.677Z,13.00
2023-05-25T03:08:32.924Z,8.57
2023-05-25T03:13:35.469Z,10.70
2023-05-25T03:18:37.543Z,8.50
2023-05-25T03:23:40.187Z,10.83
2023-05-25T03:28:42.138Z,9.67
2023-05-25T03:33:44.793Z,16.33
2023-05-25T03:38:49.018Z,12.93
2023-05-25T03:43:51.088Z,12.13
2023-05-25T03:48:55.948Z,11.47
2023-05-25T03:53:58.983Z,10.30
2023-05-25T03:59:01.048Z,9.57
2023-05-25T04:04:08.131Z,10.57
2023-05-25T04:09:11.375Z,11.33
2023-05-25T04:14:15.790Z,12.10
2023-05-25T04:19:17.961Z,11.70
2023-05-25T04:24:20.483Z,13.97
2023-05-25T04:29:22.666Z,10.30
2023-05-25T04:34:24.892Z,11.47
2023-05-25T04:39:26.793Z,12.47
2023-05-25T04:44:40.598Z,14.97
2023-05-25T04:49:45.263Z,14.50
2023-05-25T04:54:54.447Z,10.23
2023-05-25T04:59:58.366Z,11.33
2023-05-25T05:05:00.587Z,13.80
2023-05-25T05:10:03.476Z,13.67
2023-05-25T05:15:14.085Z,16.10
2023-05-25T05:21:02.316Z,16.07
2023-05-25T05:26:10.153Z,13.80
2023-05-25T05:31:26.271Z,22.27
2023-05-25T05:36:38.750Z,14.20
2023-05-25T05:41:47.234Z,18.27
2023-05-25T05:46:53.080Z,11.73
2023-05-25T05:51:56.058Z,14.83
2023-05-25T05:56:57.885Z,18.80
2023-05-25T06:02:04.561Z,11.30
2023-05-25T06:07:09.990Z,14.57
2023-05-25T06:12:11.970Z,15.87
2023-05-25T06:17:21.463Z,15.23
2023-05-25T06:22:31.942Z,11.93
2023-05-25T06:27:38.346Z,10.13
2023-05-25T06:32:46.313Z,10.70
2023-05-25T06:37:51.389Z,14.67
2023-05-25T06:42:55.697Z,11.30
2023-05-25T06:48:01.886Z,15.93
2023-05-25T06:53:06.886Z,10.13
2023-05-25T06:58:13.239Z,10.77
2023-05-25T07:03:16.454Z,12.47
2023-05-25T07:08:18.361Z,9.27
2023-05-25T07:13:23.220Z,13.10
2023-05-25T07:18:28.145Z,13.23
2023-05-25T07:23:34.000Z,11.23
2023-05-25T07:28:45.730Z,13.93
2023-05-25T07:33:48.846Z,14.07
2023-05-25T07:38:53.154Z,13.60
2023-05-25T07:43:57.959Z,11.27
2023-05-25T07:49:02.426Z,16.33
2023-05-25T07:54:04.433Z,16.07
2023-05-25T07:59:08.744Z,13.50
2023-05-25T08:04:12.478Z,10.43
2023-05-25T08:09:16.045Z,16.67
2023-05-25T08:14:23.881Z,13.00
2023-05-25T08:19:35.993Z,15.20
2023-05-25T08:24:43.916Z,16.17
2023-05-25T08:29:48.229Z,14.07
2023-05-25T08:34:52.598Z,17.17
2023-05-25T08:39:57.080Z,14.60
2023-05-25T08:45:00.704Z,16.70
2023-05-25T08:50:07.249Z,17.33
2023-05-25T08:55:13.817Z,16.33
2023-05-25T09:00:31.583Z,11.23
2023-05-25T09:11:16.300Z,19.63
2023-05-25T09:16:22.266Z,15.27
2023-05-25T09:21:34.491Z,15.80
2023-05-25T09:26:48.185Z,20.10
2023-05-25T09:32:01.458Z,14.93
2023-05-25T09:37:23.292Z,15.10
2023-05-25T09:42:36.021Z,13.37
2023-05-25T09:47:45.326Z,16.07
2023-05-25T09:52:50.488Z,13.07
2023-05-25T10:03:15.152Z,16.93
2023-05-25T10:08:22.027Z,17.33
2023-05-25T10:13:35.562Z,14.33
2023-05-25T10:18:44.859Z,14.53
2023-05-25T10:23:52.095Z,14.60
2023-05-25T10:29:00.396Z,15.23
2023-05-25T10:34:23.261Z,9.40
2023-05-25T10:39:34.554Z,11.47
2023-05-25T10:44:45.298Z,11.83
2023-05-25T10:50:00.411Z,11.70
2023-05-25T10:55:05.319Z,8.97
2023-05-25T11:00:12.396Z,10.13
2023-05-25T11:05:33.051Z,10.67
2023-05-25T11:10:47.417Z,8.00
2023-05-25T11:16:22.941Z,10.73
2023-05-25T11:21:35.408Z,6.77
2023-05-25T11:26:37.674Z,8.83
2023-05-25T11:31:43.971Z,10.57
2023-05-25T11:36:54.217Z,10.07
2023-05-25T11:42:06.973Z,11.53
2023-05-25T11:47:13.396Z,6.50
2023-05-25T11:52:27.959Z,5.80
2023-05-25T11:57:34.237Z,6.80
2023-05-25T12:02:41.240Z,7.53
2023-05-25T12:07:46.765Z,7.67
2023-05-25T12:12:52.355Z,7.30
2023-05-25T12:18:00.089Z,6.53
2023-05-25T12:23:02.561Z,5.77
2023-05-25T12:28:17.507Z,7.93
2023-05-25T12:33:31.201Z,6.70
2023-05-25T12:38:35.379Z,6.17
2023-05-25T12:43:46.011Z,7.03
2023-05-25T12:48:56.884Z,6.40
2023-05-25T12:53:58.954Z,5.87
2023-05-25T12:59:19.128Z,8.13
2023-05-25T13:04:32.595Z,9.97
2023-05-25T13:09:35.386Z,6.37
2023-05-25T13:14:49.226Z,10.60
2023-05-25T13:19:53.554Z,7.87
2023-05-25T13:25:06.697Z,7.00
2023-05-25T13:30:16.182Z,11.87
2023-05-25T13:35:36.905Z,6.63
2023-05-25T13:40:46.309Z,10.10
2023-05-25T13:45:53.183Z,8.13
2023-05-25T13:51:00.501Z,5.43
2023-05-25T13:56:10.516Z,9.53
2023-05-25T14:01:14.751Z,6.87
2023-05-25T14:06:20.881Z,10.93
2023-05-25T14:11:28.623Z,10.27
2023-05-25T14:16:31.735Z,7.60
2023-05-25T14:21:36.417Z,5.70
2023-05-25T14:26:38.530Z,8.80
2023-05-25T14:31:40.649Z,9.73
2023-05-25T14:36:44.726Z,9.27
2023-05-25T14:41:48.919Z,7.83
2023-05-25T14:46:55.001Z,8.37
2023-05-25T14:52:04.598Z,6.83
2023-05-25T14:57:08.333Z,8.33
2023-05-25T15:02:11.531Z,8.47
2023-05-25T15:07:16.874Z,6.30
2023-05-25T15:12:24.928Z,7.97
2023-05-25T15:17:32.586Z,10.97
2023-05-25T15:22:34.521Z,6.20
2023-05-25T15:27:36.501Z,12.67
2023-05-25T15:32:47.847Z,5.93
2023-05-25T15:37:52.567Z,7.50
2023-05-25T15:42:55.123Z,9.63
2023-05-25T15:47:59.794Z,11.80
2023-05-25T15:53:02.331Z,10.83
2023-05-25T15:58:09.059Z,10.97
2023-05-25T16:03:14.429Z,11.67
2023-05-25T16:08:21.012Z,11.37
2023-05-25T16:14:27.938Z,7.93
2023-05-25T16:33:08.466Z,11.87
2023-05-25T17:04:12.689Z,11.73
2023-05-25T17:14:36.501Z,10.17
2023-05-25T17:20:01.430Z,9.60
2023-05-25T20:08:45.265Z,18.43
2023-05-25T20:13:49.100Z,17.87
2023-05-25T20:18:53.433Z,18.47
2023-05-25T20:23:55.292Z,18.33
2023-05-25T20:29:00.140Z,15.03
2023-05-25T20:34:18.933Z,17.70
2023-05-25T20:39:26.197Z,16.57
2023-05-25T20:44:29.955Z,16.57
2023-05-25T20:49:31.739Z,17.80
2023-05-25T20:54:33.636Z,21.03
2023-05-25T20:59:38.437Z,10.67
2023-05-25T21:04:40.503Z,20.00
2023-05-25T21:09:42.400Z,15.30
2023-05-25T21:14:44.327Z,14.17
2023-05-25T22:05:34.799Z,9.17
2023-05-25T22:10:38.114Z,11.57
2023-05-25T22:15:39.938Z,19.03
2023-05-25T22:20:42.096Z,16.07
2023-05-25T22:25:44.319Z,13.60
2023-05-25T22:30:46.316Z,13.93
2023-05-25T22:35:48.186Z,16.37
2023-05-25T22:40:49.996Z,20.03
2023-05-25T22:45:54.153Z,12.63
2023-05-25T22:50:55.903Z,14.23
2023-05-25T22:55:57.855Z,22.97
2023-05-25T23:00:59.643Z,17.03
2023-05-25T23:06:01.518Z,18.10
2023-05-25T23:11:03.382Z,19.40
2023-05-25T23:16:05.411Z,20.13
2023-05-25T23:21:07.248Z,19.63
2023-05-25T23:26:09.017Z,17.93
2023-05-25T23:31:10.895Z,17.67
2023-05-25T23:36:12.670Z,20.23
2023-05-25T23:41:16.439Z,17.87
2023-05-25T23:46:18.315Z,25.77
2023-05-25T23:51:20.072Z,27.70
2023-05-25T23:56:22.033Z,16.07
